sensor_id;sensor_type;location;lat;lon;timestamp;P1;durP1;ratioP1;P2;durP2;ratioP2
16760;SDS011;8498;52.516;13.790;2022-10-17T00:00:31;10.37;;;4.33;;
16760;SDS011;8498;52.516;13.790;2022-10-17T00:05:53;11.40;;;4.80;;
16760;SDS011;8498;52.516;13.790;2022-10-17T00:11:21;5.13;;;3.73;;
16760;SDS011;8498;52.516;13.790;2022-10-17T00:16:44;5.00;;;3.97;;
16760;SDS011;8498;52.516;13.790;2022-10-17T00:22:07;9.67;;;4.80;;
16760;SDS011;8498;52.516;13.790;2022-10-17T00:27:29;16.70;;;4.63;;
16760;SDS011;8498;52.516;13.790;2022-10-17T00:32:55;6.97;;;4.30;;
16760;SDS011;8498;52.516;13.790;2022-10-17T00:38:17;10.57;;;3.90;;
16760;SDS011;8498;52.516;13.790;2022-10-17T00:49:17;7.17;;;4.00;;
16760;SDS011;8498;52.516;13.790;2022-10-17T00:54:42;6.67;;;4.10;;
16760;SDS011;8498;52.516;13.790;2022-10-17T01:00:07;6.77;;;4.27;;
16760;SDS011;8498;52.516;13.790;2022-10-17T01:05:31;6.90;;;4.30;;
16760;SDS011;8498;52.516;13.790;2022-10-17T01:11:07;7.73;;;4.37;;
16760;SDS011;8498;52.516;13.790;2022-10-17T01:22:14;5.40;;;4.13;;
16760;SDS011;8498;52.516;13.790;2022-10-17T01:33:30;10.97;;;4.27;;
16760;SDS011;8498;52.516;13.790;2022-10-17T01:39:26;5.93;;;3.87;;
16760;SDS011;8498;52.516;13.790;2022-10-17T01:50:36;4.60;;;3.60;;
16760;SDS011;8498;52.516;13.790;2022-10-17T01:56:05;6.47;;;3.83;;
16760;SDS011;8498;52.516;13.790;2022-10-17T02:01:30;4.83;;;3.70;;
16760;SDS011;8498;52.516;13.790;2022-10-17T02:06:54;4.43;;;3.80;;
16760;SDS011;8498;52.516;13.790;2022-10-17T02:18:30;4.00;;;3.60;;
16760;SDS011;8498;52.516;13.790;2022-10-17T02:23:54;3.60;;;3.30;;
16760;SDS011;8498;52.516;13.790;2022-10-17T02:29:43;4.03;;;3.33;;
16760;SDS011;8498;52.516;13.790;2022-10-17T02:35:10;4.00;;;3.70;;
16760;SDS011;8498;52.516;13.790;2022-10-17T02:40:36;4.00;;;3.70;;
16760;SDS011;8498;52.516;13.790;2022-10-17T02:46:01;4.33;;;3.40;;
16760;SDS011;8498;52.516;13.790;2022-10-17T02:57:13;4.10;;;3.70;;
16760;SDS011;8498;52.516;13.790;2022-10-17T03:02:44;5.33;;;3.60;;
16760;SDS011;8498;52.516;13.790;2022-10-17T03:08:08;4.07;;;3.77;;
16760;SDS011;8498;52.516;13.790;2022-10-17T03:13:30;4.23;;;3.83;;
16760;SDS011;8498;52.516;13.790;2022-10-17T03:18:58;5.40;;;4.17;;
16760;SDS011;8498;52.516;13.790;2022-10-17T03:24:21;4.60;;;3.90;;
16760;SDS011;8498;52.516;13.790;2022-10-17T03:29:44;4.83;;;4.30;;
16760;SDS011;8498;52.516;13.790;2022-10-17T03:35:09;6.57;;;4.90;;
16760;SDS011;8498;52.516;13.790;2022-10-17T03:40:39;6.13;;;4.83;;
16760;SDS011;8498;52.516;13.790;2022-10-17T03:46:02;8.30;;;5.97;;
16760;SDS011;8498;52.516;13.790;2022-10-17T03:51:25;9.07;;;5.80;;
16760;SDS011;8498;52.516;13.790;2022-10-17T03:56:55;10.63;;;6.03;;
16760;SDS011;8498;52.516;13.790;2022-10-17T04:02:18;10.60;;;6.27;;
16760;SDS011;8498;52.516;13.790;2022-10-17T04:07:40;8.77;;;4.87;;
16760;SDS011;8498;52.516;13.790;2022-10-17T04:13:04;8.13;;;5.33;;
16760;SDS011;8498;52.516;13.790;2022-10-17T04:18:28;9.90;;;6.33;;
16760;SDS011;8498;52.516;13.790;2022-10-17T04:23:57;7.90;;;5.40;;
16760;SDS011;8498;52.516;13.790;2022-10-17T04:29:43;7.60;;;5.87;;
16760;SDS011;8498;52.516;13.790;2022-10-17T04:35:13;7.23;;;5.87;;
16760;SDS011;8498;52.516;13.790;2022-10-17T04:40:41;7.37;;;5.70;;
16760;SDS011;8498;52.516;13.790;2022-10-17T04:46:05;8.27;;;6.00;;
16760;SDS011;8498;52.516;13.790;2022-10-17T04:51:29;10.67;;;6.97;;
16760;SDS011;8498;52.516;13.790;2022-10-17T04:57:05;11.03;;;7.43;;
16760;SDS011;8498;52.516;13.790;2022-10-17T05:02:28;9.37;;;7.10;;
16760;SDS011;8498;52.516;13.790;2022-10-17T05:07:51;10.23;;;6.20;;
16760;SDS011;8498;52.516;13.790;2022-10-17T05:13:17;9.30;;;6.50;;
16760;SDS011;8498;52.516;13.790;2022-10-17T05:18:39;10.90;;;6.67;;
16760;SDS011;8498;52.516;13.790;2022-10-17T05:24:06;11.07;;;6.47;;
16760;SDS011;8498;52.516;13.790;2022-10-17T05:29:29;8.00;;;5.83;;
16760;SDS011;8498;52.516;13.790;2022-10-17T05:35:01;8.03;;;5.83;;
16760;SDS011;8498;52.516;13.790;2022-10-17T05:40:26;7.93;;;5.60;;
16760;SDS011;8498;52.516;13.790;2022-10-17T05:45:49;14.83;;;6.27;;
16760;SDS011;8498;52.516;13.790;2022-10-17T05:51:14;12.07;;;6.23;;
16760;SDS011;8498;52.516;13.790;2022-10-17T05:56:37;15.23;;;6.90;;
16760;SDS011;8498;52.516;13.790;2022-10-17T06:01:59;12.40;;;5.97;;
16760;SDS011;8498;52.516;13.790;2022-10-17T06:07:23;8.87;;;6.40;;
16760;SDS011;8498;52.516;13.790;2022-10-17T06:12:46;13.37;;;6.53;;
16760;SDS011;8498;52.516;13.790;2022-10-17T06:18:10;9.77;;;6.20;;
16760;SDS011;8498;52.516;13.790;2022-10-17T06:23:33;9.57;;;6.13;;
16760;SDS011;8498;52.516;13.790;2022-10-17T06:29:07;10.03;;;6.17;;
16760;SDS011;8498;52.516;13.790;2022-10-17T06:34:35;11.60;;;6.97;;
16760;SDS011;8498;52.516;13.790;2022-10-17T06:39:58;10.47;;;6.70;;
16760;SDS011;8498;52.516;13.790;2022-10-17T06:45:20;13.60;;;7.10;;
16760;SDS011;8498;52.516;13.790;2022-10-17T06:51:09;11.53;;;7.13;;
16760;SDS011;8498;52.516;13.790;2022-10-17T06:56:44;13.40;;;7.27;;
16760;SDS011;8498;52.516;13.790;2022-10-17T07:02:22;12.40;;;7.47;;
16760;SDS011;8498;52.516;13.790;2022-10-17T07:07:46;11.10;;;7.40;;
16760;SDS011;8498;52.516;13.790;2022-10-17T07:13:13;14.33;;;8.10;;
16760;SDS011;8498;52.516;13.790;2022-10-17T07:18:35;14.17;;;7.73;;
16760;SDS011;8498;52.516;13.790;2022-10-17T07:23:58;12.60;;;7.83;;
16760;SDS011;8498;52.516;13.790;2022-10-17T07:29:20;12.50;;;7.43;;
16760;SDS011;8498;52.516;13.790;2022-10-17T07:34:52;13.23;;;7.90;;
16760;SDS011;8498;52.516;13.790;2022-10-17T07:40:14;13.90;;;7.80;;
16760;SDS011;8498;52.516;13.790;2022-10-17T07:45:37;11.73;;;7.23;;
16760;SDS011;8498;52.516;13.790;2022-10-17T07:51:02;12.83;;;7.40;;
16760;SDS011;8498;52.516;13.790;2022-10-17T07:56:26;13.00;;;7.57;;
16760;SDS011;8498;52.516;13.790;2022-10-17T08:01:50;11.00;;;7.30;;
16760;SDS011;8498;52.516;13.790;2022-10-17T08:07:15;10.67;;;7.10;;
16760;SDS011;8498;52.516;13.790;2022-10-17T08:12:46;10.20;;;6.63;;
16760;SDS011;8498;52.516;13.790;2022-10-17T08:18:08;13.30;;;7.03;;
16760;SDS011;8498;52.516;13.790;2022-10-17T08:23:31;11.33;;;7.03;;
16760;SDS011;8498;52.516;13.790;2022-10-17T08:28:53;9.13;;;5.93;;
16760;SDS011;8498;52.516;13.790;2022-10-17T08:34:16;8.83;;;5.30;;
16760;SDS011;8498;52.516;13.790;2022-10-17T08:39:42;9.20;;;5.43;;
16760;SDS011;8498;52.516;13.790;2022-10-17T08:45:09;9.43;;;5.57;;
16760;SDS011;8498;52.516;13.790;2022-10-17T08:50:41;8.13;;;4.83;;
16760;SDS011;8498;52.516;13.790;2022-10-17T08:56:17;8.37;;;4.83;;
16760;SDS011;8498;52.516;13.790;2022-10-17T09:14:03;9.95;;;4.25;;
16760;SDS011;8498;52.516;13.790;2022-10-17T09:20:31;8.05;;;4.22;;
16760;SDS011;8498;52.516;13.790;2022-10-17T09:25:26;6.63;;;4.07;;
16760;SDS011;8498;52.516;13.790;2022-10-17T09:30:52;4.65;;;3.92;;
16760;SDS011;8498;52.516;13.790;2022-10-17T09:36:32;4.15;;;3.72;;
16760;SDS011;8498;52.516;13.790;2022-10-17T09:41:58;5.93;;;3.83;;
16760;SDS011;8498;52.516;13.790;2022-10-17T09:52:47;6.43;;;3.85;;
16760;SDS011;8498;52.516;13.790;2022-10-17T09:58:11;5.68;;;3.90;;
16760;SDS011;8498;52.516;13.790;2022-10-17T10:03:34;5.70;;;3.83;;
16760;SDS011;8498;52.516;13.790;2022-10-17T10:08:56;5.53;;;3.80;;
16760;SDS011;8498;52.516;13.790;2022-10-17T10:14:23;5.32;;;3.78;;
16760;SDS011;8498;52.516;13.790;2022-10-17T10:19:57;7.97;;;4.43;;
16760;SDS011;8498;52.516;13.790;2022-10-17T10:25:20;4.30;;;3.40;;
16760;SDS011;8498;52.516;13.790;2022-10-17T10:30:45;4.70;;;3.63;;
16760;SDS011;8498;52.516;13.790;2022-10-17T10:36:10;7.22;;;3.67;;
16760;SDS011;8498;52.516;13.790;2022-10-17T10:41:44;5.00;;;3.70;;
16760;SDS011;8498;52.516;13.790;2022-10-17T10:47:16;5.63;;;3.92;;
16760;SDS011;8498;52.516;13.790;2022-10-17T10:52:45;4.35;;;3.95;;
16760;SDS011;8498;52.516;13.790;2022-10-17T10:58:20;6.93;;;3.83;;
16760;SDS011;8498;52.516;13.790;2022-10-17T11:03:53;4.28;;;3.72;;
16760;SDS011;8498;52.516;13.790;2022-10-17T11:15:17;6.75;;;3.70;;
16760;SDS011;8498;52.516;13.790;2022-10-17T11:26:28;4.32;;;3.55;;
16760;SDS011;8498;52.516;13.790;2022-10-17T11:31:57;5.70;;;3.83;;
16760;SDS011;8498;52.516;13.790;2022-10-17T11:37:26;7.78;;;4.53;;
16760;SDS011;8498;52.516;13.790;2022-10-17T11:42:59;7.47;;;4.20;;
16760;SDS011;8498;52.516;13.790;2022-10-17T11:48:36;7.07;;;4.50;;
16760;SDS011;8498;52.516;13.790;2022-10-17T11:54:08;6.07;;;4.15;;
16760;SDS011;8498;52.516;13.790;2022-10-17T12:10:33;5.50;;;4.20;;
16760;SDS011;8498;52.516;13.790;2022-10-17T12:21:54;6.32;;;4.30;;
16760;SDS011;8498;52.516;13.790;2022-10-17T12:38:27;9.43;;;4.75;;
16760;SDS011;8498;52.516;13.790;2022-10-17T12:43:50;7.35;;;4.85;;
16760;SDS011;8498;52.516;13.790;2022-10-17T13:06:37;5.57;;;4.72;;
16760;SDS011;8498;52.516;13.790;2022-10-17T13:12:08;5.25;;;4.38;;
16760;SDS011;8498;52.516;13.790;2022-10-17T13:17:36;6.93;;;4.72;;
16760;SDS011;8498;52.516;13.790;2022-10-17T13:23:04;7.38;;;4.60;;
16760;SDS011;8498;52.516;13.790;2022-10-17T13:28:26;7.05;;;4.63;;
16760;SDS011;8498;52.516;13.790;2022-10-17T13:33:49;5.75;;;4.60;;
16760;SDS011;8498;52.516;13.790;2022-10-17T13:39:18;6.53;;;4.63;;
16760;SDS011;8498;52.516;13.790;2022-10-17T13:45:12;8.95;;;4.97;;
16760;SDS011;8498;52.516;13.790;2022-10-17T13:50:49;9.98;;;4.80;;
16760;SDS011;8498;52.516;13.790;2022-10-17T14:01:50;6.82;;;5.05;;
16760;SDS011;8498;52.516;13.790;2022-10-17T14:07:22;7.40;;;4.68;;
16760;SDS011;8498;52.516;13.790;2022-10-17T14:12:58;12.20;;;4.43;;
16760;SDS011;8498;52.516;13.790;2022-10-17T14:18:24;8.70;;;4.57;;
16760;SDS011;8498;52.516;13.790;2022-10-17T14:24:25;11.50;;;6.90;;
16760;SDS011;8498;52.516;13.790;2022-10-17T14:29:50;8.77;;;5.18;;
16760;SDS011;8498;52.516;13.790;2022-10-17T14:35:15;8.25;;;5.15;;
16760;SDS011;8498;52.516;13.790;2022-10-17T14:40:59;10.73;;;5.82;;
16760;SDS011;8498;52.516;13.790;2022-10-17T14:46:45;7.80;;;5.20;;
16760;SDS011;8498;52.516;13.790;2022-10-17T14:57:40;10.23;;;5.15;;
16760;SDS011;8498;52.516;13.790;2022-10-17T15:03:05;6.35;;;4.93;;
16760;SDS011;8498;52.516;13.790;2022-10-17T15:08:27;8.75;;;5.20;;
16760;SDS011;8498;52.516;13.790;2022-10-17T15:13:50;9.13;;;5.18;;
16760;SDS011;8498;52.516;13.790;2022-10-17T15:19:13;10.23;;;5.22;;
16760;SDS011;8498;52.516;13.790;2022-10-17T15:24:35;10.32;;;5.68;;
16760;SDS011;8498;52.516;13.790;2022-10-17T15:29:58;12.85;;;6.18;;
16760;SDS011;8498;52.516;13.790;2022-10-17T15:35:20;11.25;;;5.45;;
16760;SDS011;8498;52.516;13.790;2022-10-17T15:40:43;10.63;;;6.00;;
16760;SDS011;8498;52.516;13.790;2022-10-17T15:46:28;7.65;;;5.25;;
16760;SDS011;8498;52.516;13.790;2022-10-17T15:51:53;9.32;;;5.72;;
16760;SDS011;8498;52.516;13.790;2022-10-17T15:57:17;9.63;;;5.00;;
16760;SDS011;8498;52.516;13.790;2022-10-17T16:02:45;12.20;;;5.93;;
16760;SDS011;8498;52.516;13.790;2022-10-17T16:08:08;9.52;;;5.90;;
16760;SDS011;8498;52.516;13.790;2022-10-17T16:13:31;11.48;;;5.32;;
16760;SDS011;8498;52.516;13.790;2022-10-17T16:18:54;15.85;;;6.20;;
16760;SDS011;8498;52.516;13.790;2022-10-17T16:24:17;10.43;;;6.13;;
16760;SDS011;8498;52.516;13.790;2022-10-17T16:29:39;10.30;;;6.05;;
16760;SDS011;8498;52.516;13.790;2022-10-17T16:35:02;12.25;;;5.55;;
16760;SDS011;8498;52.516;13.790;2022-10-17T16:40:25;9.25;;;5.97;;
16760;SDS011;8498;52.516;13.790;2022-10-17T16:45:48;8.55;;;5.90;;
16760;SDS011;8498;52.516;13.790;2022-10-17T16:51:11;9.40;;;5.78;;
16760;SDS011;8498;52.516;13.790;2022-10-17T16:56:34;20.00;;;5.97;;
16760;SDS011;8498;52.516;13.790;2022-10-17T17:01:56;9.13;;;5.88;;
16760;SDS011;8498;52.516;13.790;2022-10-17T17:07:19;12.15;;;7.35;;
16760;SDS011;8498;52.516;13.790;2022-10-17T17:12:42;9.55;;;6.80;;
16760;SDS011;8498;52.516;13.790;2022-10-17T17:18:05;13.52;;;7.45;;
16760;SDS011;8498;52.516;13.790;2022-10-17T17:23:28;13.98;;;6.68;;
16760;SDS011;8498;52.516;13.790;2022-10-17T17:28:51;16.88;;;5.90;;
16760;SDS011;8498;52.516;13.790;2022-10-17T17:34:16;14.57;;;7.00;;
16760;SDS011;8498;52.516;13.790;2022-10-17T17:39:39;11.15;;;5.85;;
16760;SDS011;8498;52.516;13.790;2022-10-17T17:45:02;9.63;;;6.00;;
16760;SDS011;8498;52.516;13.790;2022-10-17T17:50:25;10.15;;;6.55;;
16760;SDS011;8498;52.516;13.790;2022-10-17T17:55:47;14.90;;;7.55;;
16760;SDS011;8498;52.516;13.790;2022-10-17T18:01:21;14.38;;;8.20;;
16760;SDS011;8498;52.516;13.790;2022-10-17T18:06:45;14.45;;;7.75;;
16760;SDS011;8498;52.516;13.790;2022-10-17T18:12:08;12.15;;;7.30;;
16760;SDS011;8498;52.516;13.790;2022-10-17T18:17:30;14.55;;;6.80;;
16760;SDS011;8498;52.516;13.790;2022-10-17T18:22:52;19.08;;;6.72;;
16760;SDS011;8498;52.516;13.790;2022-10-17T18:28:15;8.52;;;6.32;;
16760;SDS011;8498;52.516;13.790;2022-10-17T18:33:38;12.10;;;6.65;;
16760;SDS011;8498;52.516;13.790;2022-10-17T18:39:01;12.70;;;6.18;;
16760;SDS011;8498;52.516;13.790;2022-10-17T18:44:23;17.00;;;7.38;;
16760;SDS011;8498;52.516;13.790;2022-10-17T18:49:46;13.52;;;6.88;;
16760;SDS011;8498;52.516;13.790;2022-10-17T18:55:09;15.60;;;7.60;;
16760;SDS011;8498;52.516;13.790;2022-10-17T19:00:31;13.55;;;7.68;;
16760;SDS011;8498;52.516;13.790;2022-10-17T19:05:54;14.00;;;8.00;;
16760;SDS011;8498;52.516;13.790;2022-10-17T19:11:22;14.88;;;8.18;;
16760;SDS011;8498;52.516;13.790;2022-10-17T19:16:47;14.48;;;8.23;;
16760;SDS011;8498;52.516;13.790;2022-10-17T19:22:11;17.92;;;8.50;;
16760;SDS011;8498;52.516;13.790;2022-10-17T19:27:34;26.67;;;11.50;;
16760;SDS011;8498;52.516;13.790;2022-10-17T19:32:56;26.47;;;10.90;;
16760;SDS011;8498;52.516;13.790;2022-10-17T19:38:18;33.53;;;12.83;;
16760;SDS011;8498;52.516;13.790;2022-10-17T19:43:42;32.60;;;13.37;;
16760;SDS011;8498;52.516;13.790;2022-10-17T19:49:05;32.28;;;12.23;;
16760;SDS011;8498;52.516;13.790;2022-10-17T19:54:27;16.40;;;8.67;;
16760;SDS011;8498;52.516;13.790;2022-10-17T19:59:50;15.47;;;9.03;;
16760;SDS011;8498;52.516;13.790;2022-10-17T20:05:16;21.13;;;9.40;;
16760;SDS011;8498;52.516;13.790;2022-10-17T20:10:41;14.57;;;8.10;;
16760;SDS011;8498;52.516;13.790;2022-10-17T20:16:04;14.93;;;8.57;;
16760;SDS011;8498;52.516;13.790;2022-10-17T20:21:29;15.10;;;8.30;;
16760;SDS011;8498;52.516;13.790;2022-10-17T20:26:53;15.93;;;7.77;;
16760;SDS011;8498;52.516;13.790;2022-10-17T20:32:15;17.93;;;8.50;;
16760;SDS011;8498;52.516;13.790;2022-10-17T20:37:38;19.30;;;9.47;;
16760;SDS011;8498;52.516;13.790;2022-10-17T20:43:04;14.03;;;8.07;;
16760;SDS011;8498;52.516;13.790;2022-10-17T20:48:29;15.70;;;8.73;;
16760;SDS011;8498;52.516;13.790;2022-10-17T20:53:52;22.37;;;8.90;;
16760;SDS011;8498;52.516;13.790;2022-10-17T20:59:14;17.40;;;8.73;;
16760;SDS011;8498;52.516;13.790;2022-10-17T21:04:38;13.63;;;8.40;;
16760;SDS011;8498;52.516;13.790;2022-10-17T21:10:08;14.90;;;8.87;;
16760;SDS011;8498;52.516;13.790;2022-10-17T21:15:51;18.70;;;8.87;;
16760;SDS011;8498;52.516;13.790;2022-10-17T21:21:17;18.20;;;10.03;;
16760;SDS011;8498;52.516;13.790;2022-10-17T21:26:47;19.33;;;9.67;;
16760;SDS011;8498;52.516;13.790;2022-10-17T21:32:14;18.50;;;9.77;;
16760;SDS011;8498;52.516;13.790;2022-10-17T21:37:56;19.43;;;9.87;;
16760;SDS011;8498;52.516;13.790;2022-10-17T21:43:19;15.63;;;8.90;;
16760;SDS011;8498;52.516;13.790;2022-10-17T21:48:41;17.00;;;9.77;;
16760;SDS011;8498;52.516;13.790;2022-10-17T21:54:05;21.53;;;10.17;;
16760;SDS011;8498;52.516;13.790;2022-10-17T21:59:27;22.47;;;9.80;;
16760;SDS011;8498;52.516;13.790;2022-10-17T22:04:49;15.43;;;9.13;;
16760;SDS011;8498;52.516;13.790;2022-10-17T22:10:11;22.57;;;11.00;;
16760;SDS011;8498;52.516;13.790;2022-10-17T22:15:34;21.10;;;10.73;;
16760;SDS011;8498;52.516;13.790;2022-10-17T22:21:06;20.93;;;10.60;;
16760;SDS011;8498;52.516;13.790;2022-10-17T22:26:30;23.17;;;10.80;;
16760;SDS011;8498;52.516;13.790;2022-10-17T22:31:53;28.30;;;11.73;;
16760;SDS011;8498;52.516;13.790;2022-10-17T22:37:15;21.70;;;11.07;;
16760;SDS011;8498;52.516;13.790;2022-10-17T22:42:37;27.87;;;11.33;;
16760;SDS011;8498;52.516;13.790;2022-10-17T22:48:00;26.10;;;12.33;;
16760;SDS011;8498;52.516;13.790;2022-10-17T22:53:23;29.20;;;13.03;;
16760;SDS011;8498;52.516;13.790;2022-10-17T22:58:47;26.27;;;11.50;;
16760;SDS011;8498;52.516;13.790;2022-10-17T23:04:10;26.30;;;12.63;;
16760;SDS011;8498;52.516;13.790;2022-10-17T23:09:32;27.47;;;12.27;;
16760;SDS011;8498;52.516;13.790;2022-10-17T23:14:55;29.63;;;12.67;;
16760;SDS011;8498;52.516;13.790;2022-10-17T23:20:17;34.00;;;13.60;;
16760;SDS011;8498;52.516;13.790;2022-10-17T23:25:40;33.43;;;13.03;;
16760;SDS011;8498;52.516;13.790;2022-10-17T23:36:39;35.70;;;13.13;;
16760;SDS011;8498;52.516;13.790;2022-10-17T23:42:01;33.67;;;13.90;;
16760;SDS011;8498;52.516;13.790;2022-10-17T23:47:23;30.53;;;13.60;;
16760;SDS011;8498;52.516;13.790;2022-10-17T23:52:46;27.97;;;13.30;;
16760;SDS011;8498;52.516;13.790;2022-10-17T23:58:08;29.40;;;12.57;;
